Logo
Newest Metar:
CYQR 240800Z 32007KT 15SM SKC 03/02 A3019 RMK SLP244

Last 10 Metars:
CYQR 240700Z 30007KT 15SM FEW250 04/02 A3019 RMK CI2 SLP242
CYQR 240600Z 32008KT 15SM SCT090 05/03 A3018 RMK AC3 SLP239
CYQR 240500Z 33008KT 15SM SCT100 06/03 A3017 RMK AC4 SLP236
CYQR 240400Z 33007KT 15SM SCT090 BKN250 08/03 A3016 RMK AC4CI1 SLP231
CYQR 240300Z 34007KT 15SM FEW040 SCT093 BKN250 09/03 A3014 RMK CU1AC4CI1 CU TR SLP222
CYQR 240200Z 36012G24KT 15SM FEW040 FEW060 SCT080 BKN100 11/02 A3013 RMK CU1SC1AC1AC3 SLP220
CYQR 240114Z 35015G24KT 15SM -SHRA FEW060 BKN075 11/03 A3013 RMK SC2ACC5 SLP223
CYQR 240100Z 35016KT 15SM FEW060 BKN081 11/02 A3013 RMK SC1AC6 SLP222
CYQR 240000Z 01018G23KT 15SM FEW060 BKN120 BKN280 13/02 A3011 RMK CU2AC3CI2 SLP213 DENSITY ALT 2000FT
CYQR 232300Z 36015G21KT 15SM BKN070 BKN280 15/03 A3009 RMK CU6CI1 PRESRR SLP208 DENSITY ALT 2200FT

Click here for Saskatoon (YXE) International Weather